Архив погоды в Дербенте

Метеограмма Дербент
Вторник, 16 Июля
Время местн. Темп Ветер Видим Явления Облачность нижн/средн/верх Атм. давл. Влжн Точка росы ВНГО R Сост. почвы Tg s
Напр Скр Прв ур.ст ур.м изм
03:00 +22° З,С-З 4 - 10 км - облачно с прояснениями 755 753 -0.1 79% +18.1° 600 м - - - -
00:00 +22.4° штиль 0 - 10 км - облачно с прояснениями 755 753 -0.8 77% +18.1° 600 м - - - -
Понедельник, 15 Июля
Время местн. Темп Ветер Видим Явления Облачность нижн/средн/верх Атм. давл. Влжн Точка росы ВНГО R Сост. почвы Tg s
Напр Скр Прв ур.ст ур.м изм
21:00 +22.7° В,Ю-В 2 - 10 км - преимущественно облачно 755 754 +0.1 76% +18.3° 600 м - - - -
18:00 +23.8° В,Ю-В 3 - 20 км - преимущественно облачно 755 754 -0.9 68% +17.5° 600 м - - - -
15:00 +23.5° Ю-В 3 - 20 км - преимущественно облачно 756 755 -1.1 69% +17.5° 600 м - - - -
12:00 +23.6° Ю,Ю-В 4 - 20 км - облачно с прояснениями 757 756 -1.3 65% +16.6° 600 м - - - -
09:00 +22.5° Ю,Ю-В 3 - 20 км - облачно с прояснениями 759 757 -0.1 70% +16.7° 1 км - - - -
06:00 +20.9° Ю,Ю-В 3 - 20 км - ясно 759 757 -0.3 67% +14.6° более 2.5 км - Сухая (без трещин) - -
03:00 +19.8° Ю 2 - 10 км - ясно 759 757 -0.9 74% +15.1° более 2.5 км - - - -
00:00 +19.4° штиль 0 - 10 км - ясно 760 758 -1.2 73% +14.5° более 2.5 км - - - -
Воскресенье, 14 Июля
Время местн. Темп Ветер Видим Явления Облачность нижн/средн/верх Атм. давл. Влжн Точка росы ВНГО R Сост. почвы Tg s
Напр Скр Прв ур.ст ур.м изм
21:00 +20.3° З 1 - 10 км - ясно 761 760 +0.2 69% +14.5° более 2.5 км - - - -
18:00 +22.7° С 3 - 20 км - переменная облачность 761 759 +0.5 65% +15.7° - - - - -
15:00 +23.8° С 3 - 20 км - облачно с прояснениями 760 759 +0.8 62% +16.2° 600 м - - - -
12:00 +25.2° С 4 - 20 км - переменная облачность 760 758 -0.5 59% +16.6° - - - - -
09:00 +20.9° З 2 - 20 км - облачно с прояснениями 760 759 +0.1 68% +14.8° 600 м - - - -
06:00 +18.7° З,С-З 4 - 20 км - преимущественно облачно 760 759 +0.5 78% +14.7° 600 м - Сухая (без трещин) - -
03:00 +21° С-З 4 - 10 км - преимущественно облачно 760 758 +0.2 69% +15° 1 км - - - -
00:00 +21.4° С-З 4 - 10 км - облачно с прояснениями 759 758 -0.4 70% +15.6° 1 км - - - -
Суббота, 13 Июля
Время местн. Темп Ветер Видим Явления Облачность нижн/средн/верх Атм. давл. Влжн Точка росы ВНГО R Сост. почвы Tg s
Напр Скр Прв ур.ст ур.м изм
18:00 +22.6° С,С-З 3 - 20 км - преимущественно облачно 759 757 0 61% +14.6° 1 км - - - -
15:00 +24.5° С 5 - 20 км - облачно с прояснениями 759 757 +0.3 56% +15.1° 1 км - - - -
12:00 +23.2° С 4 - 20 км - облачно с прояснениями 759 757 -0.3 63% +15.7° 600 м - - - -
09:00 +22.3° С 5 - 20 км - преимущественно облачно 759 757 +0.1 64% +15.2° 600 м - - - -
06:00 +21.2° С,С-З 3 - 20 км - преимущественно облачно 759 757 +1.4 72% +16° 600 м - Влажная (без луж) - -
03:00 +21° С,С-З 5 11 10 км ливневый дождь {гроза} облачно 758 756 -0.4 76% +16.6° 600 м - - - -
00:00 +21.4° С 6 13 4 км слабая или умеренная гроза с осадками облачно 758 756 +0.5 81% +18° 600 м - - - -
Пятница, 12 Июля
Время местн. Темп Ветер Видим Явления Облачность нижн/средн/верх Атм. давл. Влжн Точка росы ВНГО R Сост. почвы Tg s
Напр Скр Прв ур.ст ур.м изм
21:00 +23.6° З,С-З 3 - 10 км - облачно с прояснениями 758 756 +2.4 66% +16.9° 600 м - - - -